sensor_id;sensor_type;location;lat;lon;timestamp;temperature;humidity
37984;DHT22;64625;50.882;4.376;2022-11-20T00:01:08;5.30;99.90
37984;DHT22;64625;50.882;4.376;2022-11-20T00:03:34;5.30;99.90
37984;DHT22;64625;50.882;4.376;2022-11-20T00:06:02;5.40;99.90
37984;DHT22;64625;50.882;4.376;2022-11-20T00:08:29;5.40;99.90
37984;DHT22;64625;50.882;4.376;2022-11-20T00:10:55;5.40;99.90
37984;DHT22;64625;50.882;4.376;2022-11-20T00:13:20;5.40;99.90
37984;DHT22;64625;50.882;4.376;2022-11-20T00:15:46;5.40;99.90
37984;DHT22;64625;50.882;4.376;2022-11-20T00:18:12;5.40;99.90
37984;DHT22;64625;50.882;4.376;2022-11-20T00:20:38;5.40;99.90
37984;DHT22;64625;50.882;4.376;2022-11-20T00:23:03;5.40;99.90
37984;DHT22;64625;50.882;4.376;2022-11-20T00:25:29;5.40;99.90
37984;DHT22;64625;50.882;4.376;2022-11-20T00:27:54;5.40;99.90
37984;DHT22;64625;50.882;4.376;2022-11-20T00:30:20;5.40;99.90
37984;DHT22;64625;50.882;4.376;2022-11-20T00:32:46;5.40;99.90
37984;DHT22;64625;50.882;4.376;2022-11-20T00:35:12;5.40;99.90
37984;DHT22;64625;50.882;4.376;2022-11-20T00:37:38;5.40;99.90
37984;DHT22;64625;50.882;4.376;2022-11-20T00:40:07;5.30;99.90
37984;DHT22;64625;50.882;4.376;2022-11-20T00:42:33;5.30;99.90
37984;DHT22;64625;50.882;4.376;2022-11-20T00:44:59;5.30;99.90
37984;DHT22;64625;50.882;4.376;2022-11-20T00:47:25;5.30;99.90
37984;DHT22;64625;50.882;4.376;2022-11-20T00:49:50;5.30;99.90
37984;DHT22;64625;50.882;4.376;2022-11-20T00:52:19;5.30;99.90
37984;DHT22;64625;50.882;4.376;2022-11-20T00:54:45;5.30;99.90
37984;DHT22;64625;50.882;4.376;2022-11-20T00:57:10;5.30;99.90
37984;DHT22;64625;50.882;4.376;2022-11-20T00:59:36;5.30;99.90
37984;DHT22;64625;50.882;4.376;2022-11-20T01:02:02;5.30;99.90
37984;DHT22;64625;50.882;4.376;2022-11-20T01:04:28;5.40;99.90
37984;DHT22;64625;50.882;4.376;2022-11-20T01:06:55;5.30;99.90
37984;DHT22;64625;50.882;4.376;2022-11-20T01:09:20;5.30;99.90
37984;DHT22;64625;50.882;4.376;2022-11-20T01:11:46;5.30;99.90
37984;DHT22;64625;50.882;4.376;2022-11-20T01:14:14;5.30;99.90
37984;DHT22;64625;50.882;4.376;2022-11-20T01:16:44;5.30;99.90
37984;DHT22;64625;50.882;4.376;2022-11-20T01:19:13;5.30;99.90
37984;DHT22;64625;50.882;4.376;2022-11-20T01:21:41;5.30;99.90
37984;DHT22;64625;50.882;4.376;2022-11-20T01:24:10;5.30;99.90
37984;DHT22;64625;50.882;4.376;2022-11-20T01:26:39;5.30;99.90
37984;DHT22;64625;50.882;4.376;2022-11-20T01:29:13;5.30;99.90
37984;DHT22;64625;50.882;4.376;2022-11-20T01:31:39;5.30;99.90
37984;DHT22;64625;50.882;4.376;2022-11-20T01:34:07;5.20;99.90
37984;DHT22;64625;50.882;4.376;2022-11-20T01:36:35;5.30;99.90
37984;DHT22;64625;50.882;4.376;2022-11-20T01:39:10;5.30;99.90
37984;DHT22;64625;50.882;4.376;2022-11-20T01:41:36;5.30;99.90
37984;DHT22;64625;50.882;4.376;2022-11-20T01:44:22;5.30;99.90
37984;DHT22;64625;50.882;4.376;2022-11-20T01:47:12;5.30;99.90
37984;DHT22;64625;50.882;4.376;2022-11-20T01:50:06;5.30;99.90
37984;DHT22;64625;50.882;4.376;2022-11-20T01:52:36;5.30;99.90
37984;DHT22;64625;50.882;4.376;2022-11-20T01:55:15;5.30;99.90
37984;DHT22;64625;50.882;4.376;2022-11-20T01:57:44;5.30;99.90
37984;DHT22;64625;50.882;4.376;2022-11-20T02:00:14;5.30;99.90
37984;DHT22;64625;50.882;4.376;2022-11-20T02:02:56;5.30;99.90
37984;DHT22;64625;50.882;4.376;2022-11-20T02:05:31;5.30;99.90
37984;DHT22;64625;50.882;4.376;2022-11-20T02:07:59;5.30;99.90
37984;DHT22;64625;50.882;4.376;2022-11-20T02:10:26;5.30;99.90
37984;DHT22;64625;50.882;4.376;2022-11-20T02:12:53;5.30;99.90
37984;DHT22;64625;50.882;4.376;2022-11-20T02:15:37;5.30;99.90
37984;DHT22;64625;50.882;4.376;2022-11-20T02:18:03;5.30;99.90
37984;DHT22;64625;50.882;4.376;2022-11-20T02:20:31;5.30;99.90
37984;DHT22;64625;50.882;4.376;2022-11-20T02:23:07;5.30;99.90
37984;DHT22;64625;50.882;4.376;2022-11-20T02:25:35;5.40;99.90
37984;DHT22;64625;50.882;4.376;2022-11-20T02:28:02;5.30;99.90
37984;DHT22;64625;50.882;4.376;2022-11-20T02:30:28;5.30;99.90
37984;DHT22;64625;50.882;4.376;2022-11-20T02:32:55;5.40;99.90
37984;DHT22;64625;50.882;4.376;2022-11-20T02:38:05;5.40;99.90
37984;DHT22;64625;50.882;4.376;2022-11-20T02:40:30;5.40;99.90
37984;DHT22;64625;50.882;4.376;2022-11-20T02:42:56;5.40;99.90
37984;DHT22;64625;50.882;4.376;2022-11-20T02:45:23;5.40;99.90
37984;DHT22;64625;50.882;4.376;2022-11-20T02:47:50;5.40;99.90
37984;DHT22;64625;50.882;4.376;2022-11-20T02:50:16;5.40;99.90
37984;DHT22;64625;50.882;4.376;2022-11-20T02:52:42;5.40;99.90
37984;DHT22;64625;50.882;4.376;2022-11-20T02:55:08;5.40;99.90
37984;DHT22;64625;50.882;4.376;2022-11-20T02:57:34;5.40;99.90
37984;DHT22;64625;50.882;4.376;2022-11-20T03:00:00;5.40;99.90
37984;DHT22;64625;50.882;4.376;2022-11-20T03:02:29;5.40;99.90
37984;DHT22;64625;50.882;4.376;2022-11-20T03:04:54;5.40;99.90
37984;DHT22;64625;50.882;4.376;2022-11-20T03:07:20;5.50;99.90
37984;DHT22;64625;50.882;4.376;2022-11-20T03:09:46;5.50;99.90
37984;DHT22;64625;50.882;4.376;2022-11-20T03:12:11;5.50;99.90
37984;DHT22;64625;50.882;4.376;2022-11-20T03:14:37;5.50;99.90
37984;DHT22;64625;50.882;4.376;2022-11-20T03:17:03;5.50;99.90
37984;DHT22;64625;50.882;4.376;2022-11-20T03:19:29;5.50;99.90
37984;DHT22;64625;50.882;4.376;2022-11-20T03:21:54;5.50;99.90
37984;DHT22;64625;50.882;4.376;2022-11-20T03:24:20;5.50;99.90
37984;DHT22;64625;50.882;4.376;2022-11-20T03:26:46;5.60;99.90
37984;DHT22;64625;50.882;4.376;2022-11-20T03:29:12;5.60;99.90
37984;DHT22;64625;50.882;4.376;2022-11-20T03:31:39;5.60;99.90
37984;DHT22;64625;50.882;4.376;2022-11-20T03:34:10;5.60;99.90
37984;DHT22;64625;50.882;4.376;2022-11-20T03:36:40;5.60;99.90
37984;DHT22;64625;50.882;4.376;2022-11-20T03:39:06;5.60;99.90
37984;DHT22;64625;50.882;4.376;2022-11-20T03:41:36;5.60;99.90
37984;DHT22;64625;50.882;4.376;2022-11-20T03:44:03;5.60;99.90
37984;DHT22;64625;50.882;4.376;2022-11-20T03:46:30;5.60;99.90
37984;DHT22;64625;50.882;4.376;2022-11-20T03:48:56;5.60;99.90
37984;DHT22;64625;50.882;4.376;2022-11-20T03:51:24;5.60;99.90
37984;DHT22;64625;50.882;4.376;2022-11-20T03:53:52;5.60;99.90
37984;DHT22;64625;50.882;4.376;2022-11-20T03:56:20;5.60;99.90
37984;DHT22;64625;50.882;4.376;2022-11-20T03:58:47;5.60;99.90
37984;DHT22;64625;50.882;4.376;2022-11-20T04:01:16;5.70;99.90
37984;DHT22;64625;50.882;4.376;2022-11-20T04:03:43;5.60;99.90
37984;DHT22;64625;50.882;4.376;2022-11-20T04:06:20;5.70;99.90
37984;DHT22;64625;50.882;4.376;2022-11-20T04:08:47;5.70;99.90
37984;DHT22;64625;50.882;4.376;2022-11-20T04:11:21;5.60;99.90
37984;DHT22;64625;50.882;4.376;2022-11-20T04:13:50;5.60;99.90
37984;DHT22;64625;50.882;4.376;2022-11-20T04:16:17;5.60;99.90
37984;DHT22;64625;50.882;4.376;2022-11-20T04:18:43;5.60;99.90
37984;DHT22;64625;50.882;4.376;2022-11-20T04:21:10;5.60;99.90
37984;DHT22;64625;50.882;4.376;2022-11-20T04:23:37;5.60;99.90
37984;DHT22;64625;50.882;4.376;2022-11-20T04:26:10;5.60;99.90
37984;DHT22;64625;50.882;4.376;2022-11-20T04:28:37;5.60;99.90
37984;DHT22;64625;50.882;4.376;2022-11-20T04:31:09;5.60;99.90
37984;DHT22;64625;50.882;4.376;2022-11-20T04:33:35;5.60;99.90
37984;DHT22;64625;50.882;4.376;2022-11-20T04:36:07;5.60;99.90
37984;DHT22;64625;50.882;4.376;2022-11-20T04:38:34;5.60;99.90
37984;DHT22;64625;50.882;4.376;2022-11-20T04:41:01;5.70;99.90
37984;DHT22;64625;50.882;4.376;2022-11-20T04:43:27;5.70;99.90
37984;DHT22;64625;50.882;4.376;2022-11-20T04:45:54;5.60;99.90
37984;DHT22;64625;50.882;4.376;2022-11-20T04:48:21;5.70;99.90
37984;DHT22;64625;50.882;4.376;2022-11-20T04:50:46;5.70;99.90
37984;DHT22;64625;50.882;4.376;2022-11-20T04:53:12;5.70;99.90
37984;DHT22;64625;50.882;4.376;2022-11-20T04:55:38;5.70;99.90
37984;DHT22;64625;50.882;4.376;2022-11-20T04:58:04;5.70;99.90
37984;DHT22;64625;50.882;4.376;2022-11-20T05:00:29;5.70;99.90
37984;DHT22;64625;50.882;4.376;2022-11-20T05:02:55;5.70;99.90
37984;DHT22;64625;50.882;4.376;2022-11-20T05:05:21;5.70;99.90
37984;DHT22;64625;50.882;4.376;2022-11-20T05:07:47;5.70;99.90
37984;DHT22;64625;50.882;4.376;2022-11-20T05:10:12;5.70;99.90
37984;DHT22;64625;50.882;4.376;2022-11-20T05:12:38;5.70;99.90
37984;DHT22;64625;50.882;4.376;2022-11-20T05:15:04;5.70;99.90
37984;DHT22;64625;50.882;4.376;2022-11-20T05:17:30;5.70;99.90
37984;DHT22;64625;50.882;4.376;2022-11-20T05:19:56;5.80;99.90
37984;DHT22;64625;50.882;4.376;2022-11-20T05:22:22;5.80;99.90
37984;DHT22;64625;50.882;4.376;2022-11-20T05:24:47;5.80;99.90
37984;DHT22;64625;50.882;4.376;2022-11-20T05:27:13;5.80;99.90
37984;DHT22;64625;50.882;4.376;2022-11-20T05:29:39;5.80;99.90
37984;DHT22;64625;50.882;4.376;2022-11-20T05:32:05;5.80;99.90
37984;DHT22;64625;50.882;4.376;2022-11-20T05:34:32;5.80;99.90
37984;DHT22;64625;50.882;4.376;2022-11-20T05:36:58;5.80;99.90
37984;DHT22;64625;50.882;4.376;2022-11-20T05:39:24;5.80;99.90
37984;DHT22;64625;50.882;4.376;2022-11-20T05:41:50;5.80;99.90
37984;DHT22;64625;50.882;4.376;2022-11-20T05:44:35;5.80;99.90
37984;DHT22;64625;50.882;4.376;2022-11-20T05:47:01;5.80;99.90
37984;DHT22;64625;50.882;4.376;2022-11-20T05:49:27;5.80;99.90
37984;DHT22;64625;50.882;4.376;2022-11-20T05:51:52;5.80;99.90
37984;DHT22;64625;50.882;4.376;2022-11-20T05:54:18;5.90;99.90
37984;DHT22;64625;50.882;4.376;2022-11-20T05:56:44;5.90;99.90
37984;DHT22;64625;50.882;4.376;2022-11-20T05:59:09;5.90;99.90
37984;DHT22;64625;50.882;4.376;2022-11-20T06:01:35;5.90;99.90
37984;DHT22;64625;50.882;4.376;2022-11-20T06:04:02;5.90;99.90
37984;DHT22;64625;50.882;4.376;2022-11-20T06:06:28;5.90;99.90
37984;DHT22;64625;50.882;4.376;2022-11-20T06:08:54;5.90;99.90
37984;DHT22;64625;50.882;4.376;2022-11-20T06:11:20;5.90;99.90
37984;DHT22;64625;50.882;4.376;2022-11-20T06:13:48;5.90;99.90
37984;DHT22;64625;50.882;4.376;2022-11-20T06:16:16;6.00;99.90
37984;DHT22;64625;50.882;4.376;2022-11-20T06:18:43;6.00;99.90
37984;DHT22;64625;50.882;4.376;2022-11-20T06:21:19;6.00;99.90
37984;DHT22;64625;50.882;4.376;2022-11-20T06:23:46;6.00;99.90
37984;DHT22;64625;50.882;4.376;2022-11-20T06:26:19;6.00;99.90
37984;DHT22;64625;50.882;4.376;2022-11-20T06:28:48;6.10;99.90
37984;DHT22;64625;50.882;4.376;2022-11-20T06:31:15;6.10;99.90
37984;DHT22;64625;50.882;4.376;2022-11-20T06:33:42;6.10;99.90
37984;DHT22;64625;50.882;4.376;2022-11-20T06:36:10;6.10;99.90
37984;DHT22;64625;50.882;4.376;2022-11-20T06:38:37;6.10;99.90
37984;DHT22;64625;50.882;4.376;2022-11-20T06:41:04;6.10;99.90
37984;DHT22;64625;50.882;4.376;2022-11-20T06:43:30;6.10;99.90
37984;DHT22;64625;50.882;4.376;2022-11-20T06:45:57;6.10;99.90
37984;DHT22;64625;50.882;4.376;2022-11-20T06:48:24;6.10;99.90
37984;DHT22;64625;50.882;4.376;2022-11-20T06:50:50;6.20;99.90
37984;DHT22;64625;50.882;4.376;2022-11-20T06:53:17;6.20;99.90
37984;DHT22;64625;50.882;4.376;2022-11-20T06:55:44;6.20;99.90
37984;DHT22;64625;50.882;4.376;2022-11-20T06:58:10;6.20;99.90
37984;DHT22;64625;50.882;4.376;2022-11-20T07:00:36;6.20;99.90
37984;DHT22;64625;50.882;4.376;2022-11-20T07:03:06;6.20;99.90
37984;DHT22;64625;50.882;4.376;2022-11-20T07:05:35;6.20;99.90
37984;DHT22;64625;50.882;4.376;2022-11-20T07:08:02;6.20;99.90
37984;DHT22;64625;50.882;4.376;2022-11-20T07:10:28;6.30;99.90
37984;DHT22;64625;50.882;4.376;2022-11-20T07:12:54;6.30;99.90
37984;DHT22;64625;50.882;4.376;2022-11-20T07:15:21;6.30;99.90
37984;DHT22;64625;50.882;4.376;2022-11-20T07:17:48;6.30;99.90
37984;DHT22;64625;50.882;4.376;2022-11-20T07:20:15;6.40;99.90
37984;DHT22;64625;50.882;4.376;2022-11-20T07:22:40;6.40;99.90
37984;DHT22;64625;50.882;4.376;2022-11-20T07:25:07;6.40;99.90
37984;DHT22;64625;50.882;4.376;2022-11-20T07:27:33;6.40;99.90
37984;DHT22;64625;50.882;4.376;2022-11-20T07:29:59;6.40;99.90
37984;DHT22;64625;50.882;4.376;2022-11-20T07:32:25;6.50;99.90
37984;DHT22;64625;50.882;4.376;2022-11-20T07:34:51;6.50;99.90
37984;DHT22;64625;50.882;4.376;2022-11-20T07:37:17;6.50;99.90
37984;DHT22;64625;50.882;4.376;2022-11-20T07:39:43;6.60;99.90
37984;DHT22;64625;50.882;4.376;2022-11-20T07:42:09;6.60;99.90
37984;DHT22;64625;50.882;4.376;2022-11-20T07:44:35;6.70;99.90
37984;DHT22;64625;50.882;4.376;2022-11-20T07:47:01;6.70;99.90
37984;DHT22;64625;50.882;4.376;2022-11-20T07:49:27;6.70;99.90
37984;DHT22;64625;50.882;4.376;2022-11-20T07:51:53;6.80;99.90
37984;DHT22;64625;50.882;4.376;2022-11-20T07:54:20;6.80;99.90
37984;DHT22;64625;50.882;4.376;2022-11-20T07:56:46;6.80;99.90
37984;DHT22;64625;50.882;4.376;2022-11-20T07:59:12;6.80;99.90
37984;DHT22;64625;50.882;4.376;2022-11-20T08:01:39;6.90;99.90
37984;DHT22;64625;50.882;4.376;2022-11-20T08:04:05;6.90;99.90
37984;DHT22;64625;50.882;4.376;2022-11-20T08:06:31;7.00;99.90
37984;DHT22;64625;50.882;4.376;2022-11-20T08:08:57;7.00;99.90
37984;DHT22;64625;50.882;4.376;2022-11-20T08:11:25;7.00;99.90
37984;DHT22;64625;50.882;4.376;2022-11-20T08:14:09;7.10;99.90
37984;DHT22;64625;50.882;4.376;2022-11-20T08:16:39;7.10;99.90
37984;DHT22;64625;50.882;4.376;2022-11-20T08:19:06;7.10;99.90
37984;DHT22;64625;50.882;4.376;2022-11-20T08:21:32;7.20;99.90
37984;DHT22;64625;50.882;4.376;2022-11-20T08:23:58;7.20;99.90
37984;DHT22;64625;50.882;4.376;2022-11-20T08:26:26;7.20;99.90
37984;DHT22;64625;50.882;4.376;2022-11-20T08:28:56;7.30;99.90
37984;DHT22;64625;50.882;4.376;2022-11-20T08:31:23;7.30;99.90
37984;DHT22;64625;50.882;4.376;2022-11-20T08:33:49;7.30;99.90
37984;DHT22;64625;50.882;4.376;2022-11-20T08:36:15;7.40;99.90
37984;DHT22;64625;50.882;4.376;2022-11-20T08:38:47;7.40;99.90
37984;DHT22;64625;50.882;4.376;2022-11-20T08:41:13;7.40;99.90
37984;DHT22;64625;50.882;4.376;2022-11-20T08:44:03;7.40;99.90
37984;DHT22;64625;50.882;4.376;2022-11-20T08:46:40;7.50;99.90
37984;DHT22;64625;50.882;4.376;2022-11-20T08:49:09;7.50;99.90
37984;DHT22;64625;50.882;4.376;2022-11-20T08:51:36;7.50;99.90
37984;DHT22;64625;50.882;4.376;2022-11-20T08:54:03;7.50;99.90
37984;DHT22;64625;50.882;4.376;2022-11-20T08:56:29;7.50;99.90
37984;DHT22;64625;50.882;4.376;2022-11-20T08:58:55;7.50;99.90
37984;DHT22;64625;50.882;4.376;2022-11-20T09:01:22;7.60;99.90
37984;DHT22;64625;50.882;4.376;2022-11-20T09:03:48;7.60;99.90
37984;DHT22;64625;50.882;4.376;2022-11-20T09:06:15;7.60;99.90
37984;DHT22;64625;50.882;4.376;2022-11-20T09:08:41;7.70;99.90
37984;DHT22;64625;50.882;4.376;2022-11-20T09:11:08;7.70;99.90
37984;DHT22;64625;50.882;4.376;2022-11-20T09:13:35;7.70;99.90
37984;DHT22;64625;50.882;4.376;2022-11-20T09:16:08;7.70;99.90
37984;DHT22;64625;50.882;4.376;2022-11-20T09:18:35;7.80;99.90
37984;DHT22;64625;50.882;4.376;2022-11-20T09:21:07;7.80;99.90
37984;DHT22;64625;50.882;4.376;2022-11-20T09:23:35;7.80;99.90
37984;DHT22;64625;50.882;4.376;2022-11-20T09:26:04;7.80;99.90
37984;DHT22;64625;50.882;4.376;2022-11-20T09:28:30;7.80;99.90
37984;DHT22;64625;50.882;4.376;2022-11-20T09:30:56;7.90;99.90
37984;DHT22;64625;50.882;4.376;2022-11-20T09:33:23;7.90;99.90
37984;DHT22;64625;50.882;4.376;2022-11-20T09:35:49;7.90;99.90
37984;DHT22;64625;50.882;4.376;2022-11-20T09:38:15;7.90;99.90
37984;DHT22;64625;50.882;4.376;2022-11-20T09:40:47;8.00;99.90
37984;DHT22;64625;50.882;4.376;2022-11-20T09:46:17;8.00;99.90
37984;DHT22;64625;50.882;4.376;2022-11-20T09:54:09;8.10;99.90
37984;DHT22;64625;50.882;4.376;2022-11-20T09:56:40;8.10;99.90
37984;DHT22;64625;50.882;4.376;2022-11-20T09:59:40;8.20;99.90
37984;DHT22;64625;50.882;4.376;2022-11-20T10:10:15;8.30;99.90
37984;DHT22;64625;50.882;4.376;2022-11-20T10:15:34;8.40;99.90
37984;DHT22;64625;50.882;4.376;2022-11-20T10:21:19;8.50;99.90
37984;DHT22;64625;50.882;4.376;2022-11-20T10:29:54;8.60;99.90
37984;DHT22;64625;50.882;4.376;2022-11-20T10:32:40;8.60;99.90
37984;DHT22;64625;50.882;4.376;2022-11-20T10:35:34;8.70;99.90
37984;DHT22;64625;50.882;4.376;2022-11-20T10:38:12;8.70;99.90
37984;DHT22;64625;50.882;4.376;2022-11-20T10:40:48;8.80;99.90
37984;DHT22;64625;50.882;4.376;2022-11-20T10:43:25;8.80;99.90
37984;DHT22;64625;50.882;4.376;2022-11-20T10:46:06;8.90;99.90
37984;DHT22;64625;50.882;4.376;2022-11-20T10:48:35;8.90;99.90
37984;DHT22;64625;50.882;4.376;2022-11-20T10:54:25;9.00;99.90
37984;DHT22;64625;50.882;4.376;2022-11-20T10:57:03;9.10;99.90
37984;DHT22;64625;50.882;4.376;2022-11-20T11:02:31;9.10;99.90
37984;DHT22;64625;50.882;4.376;2022-11-20T11:04:58;9.20;99.90
37984;DHT22;64625;50.882;4.376;2022-11-20T11:07:38;9.20;99.90
37984;DHT22;64625;50.882;4.376;2022-11-20T11:13:00;9.30;99.90
37984;DHT22;64625;50.882;4.376;2022-11-20T11:15:30;9.30;99.90
37984;DHT22;64625;50.882;4.376;2022-11-20T11:18:01;9.30;99.90
37984;DHT22;64625;50.882;4.376;2022-11-20T11:20:27;9.40;99.90
37984;DHT22;64625;50.882;4.376;2022-11-20T11:22:55;9.40;99.90
37984;DHT22;64625;50.882;4.376;2022-11-20T11:27:51;9.40;99.90
37984;DHT22;64625;50.882;4.376;2022-11-20T11:30:19;9.50;99.90
37984;DHT22;64625;50.882;4.376;2022-11-20T11:32:46;9.50;99.90
37984;DHT22;64625;50.882;4.376;2022-11-20T11:35:27;9.50;99.90
37984;DHT22;64625;50.882;4.376;2022-11-20T11:38:02;9.50;99.90
37984;DHT22;64625;50.882;4.376;2022-11-20T11:40:31;9.50;99.90
37984;DHT22;64625;50.882;4.376;2022-11-20T11:43:01;9.60;99.90
37984;DHT22;64625;50.882;4.376;2022-11-20T11:46:24;9.60;99.90
37984;DHT22;64625;50.882;4.376;2022-11-20T11:57:24;9.60;99.90
37984;DHT22;64625;50.882;4.376;2022-11-20T12:02:37;9.50;99.90
37984;DHT22;64625;50.882;4.376;2022-11-20T12:05:30;9.50;99.90
37984;DHT22;64625;50.882;4.376;2022-11-20T12:13:55;9.50;99.90
37984;DHT22;64625;50.882;4.376;2022-11-20T12:16:24;9.50;99.90
37984;DHT22;64625;50.882;4.376;2022-11-20T12:18:51;9.40;99.90
37984;DHT22;64625;50.882;4.376;2022-11-20T12:32:27;9.20;99.90
37984;DHT22;64625;50.882;4.376;2022-11-20T12:52:26;8.90;99.90
37984;DHT22;64625;50.882;4.376;2022-11-20T12:58:06;8.90;99.90
37984;DHT22;64625;50.882;4.376;2022-11-20T13:00:36;8.80;99.90
37984;DHT22;64625;50.882;4.376;2022-11-20T13:05:57;8.90;99.90
37984;DHT22;64625;50.882;4.376;2022-11-20T13:08:28;8.90;99.90
37984;DHT22;64625;50.882;4.376;2022-11-20T13:14:03;8.90;99.90
37984;DHT22;64625;50.882;4.376;2022-11-20T13:19:13;8.90;99.90
37984;DHT22;64625;50.882;4.376;2022-11-20T13:21:42;8.90;99.90
37984;DHT22;64625;50.882;4.376;2022-11-20T13:29:35;8.80;99.90
37984;DHT22;64625;50.882;4.376;2022-11-20T13:32:18;8.80;99.90
37984;DHT22;64625;50.882;4.376;2022-11-20T13:35:03;8.80;99.90
37984;DHT22;64625;50.882;4.376;2022-11-20T13:37:36;8.90;99.90
37984;DHT22;64625;50.882;4.376;2022-11-20T13:42:44;8.80;99.90
37984;DHT22;64625;50.882;4.376;2022-11-20T13:45:21;8.90;99.90
37984;DHT22;64625;50.882;4.376;2022-11-20T13:47:50;8.80;99.90
37984;DHT22;64625;50.882;4.376;2022-11-20T13:50:17;8.80;99.90
37984;DHT22;64625;50.882;4.376;2022-11-20T13:55:54;8.80;99.90
37984;DHT22;64625;50.882;4.376;2022-11-20T14:01:28;8.80;99.90
37984;DHT22;64625;50.882;4.376;2022-11-20T14:03:56;8.80;99.90
37984;DHT22;64625;50.882;4.376;2022-11-20T14:06:48;8.80;99.90
37984;DHT22;64625;50.882;4.376;2022-11-20T14:09:31;8.80;99.90
37984;DHT22;64625;50.882;4.376;2022-11-20T14:12:03;8.80;99.90
37984;DHT22;64625;50.882;4.376;2022-11-20T14:14:33;8.80;99.90
37984;DHT22;64625;50.882;4.376;2022-11-20T14:17:19;8.80;99.90
37984;DHT22;64625;50.882;4.376;2022-11-20T14:19:46;8.80;99.90
37984;DHT22;64625;50.882;4.376;2022-11-20T14:27:37;8.80;99.90
37984;DHT22;64625;50.882;4.376;2022-11-20T14:30:04;8.80;99.90
37984;DHT22;64625;50.882;4.376;2022-11-20T14:32:31;8.80;99.90
37984;DHT22;64625;50.882;4.376;2022-11-20T14:35:02;8.80;99.90
37984;DHT22;64625;50.882;4.376;2022-11-20T14:37:36;8.80;99.90
37984;DHT22;64625;50.882;4.376;2022-11-20T14:40:02;8.80;99.90
37984;DHT22;64625;50.882;4.376;2022-11-20T14:42:29;8.80;99.90
37984;DHT22;64625;50.882;4.376;2022-11-20T14:44:58;8.70;99.90
37984;DHT22;64625;50.882;4.376;2022-11-20T14:47:26;8.80;99.90
37984;DHT22;64625;50.882;4.376;2022-11-20T14:49:54;8.80;99.90
37984;DHT22;64625;50.882;4.376;2022-11-20T14:52:22;8.70;99.90
37984;DHT22;64625;50.882;4.376;2022-11-20T14:54:56;8.70;99.90
37984;DHT22;64625;50.882;4.376;2022-11-20T15:02:42;8.80;99.90
37984;DHT22;64625;50.882;4.376;2022-11-20T15:05:09;8.80;99.90
37984;DHT22;64625;50.882;4.376;2022-11-20T15:07:37;8.80;99.90
37984;DHT22;64625;50.882;4.376;2022-11-20T15:10:25;8.80;99.90
37984;DHT22;64625;50.882;4.376;2022-11-20T15:16:17;8.80;99.90
37984;DHT22;64625;50.882;4.376;2022-11-20T15:18:43;8.80;99.90
37984;DHT22;64625;50.882;4.376;2022-11-20T15:21:15;8.80;99.90
37984;DHT22;64625;50.882;4.376;2022-11-20T15:23:41;8.80;99.90
37984;DHT22;64625;50.882;4.376;2022-11-20T15:26:09;8.90;99.90
37984;DHT22;64625;50.882;4.376;2022-11-20T15:28:38;8.90;99.90
37984;DHT22;64625;50.882;4.376;2022-11-20T15:31:05;8.90;99.90
37984;DHT22;64625;50.882;4.376;2022-11-20T15:33:32;8.90;99.90
37984;DHT22;64625;50.882;4.376;2022-11-20T15:35:58;8.90;99.90
37984;DHT22;64625;50.882;4.376;2022-11-20T15:38:24;8.90;99.90
37984;DHT22;64625;50.882;4.376;2022-11-20T15:40:50;8.90;99.90
37984;DHT22;64625;50.882;4.376;2022-11-20T15:43:16;8.90;99.90
37984;DHT22;64625;50.882;4.376;2022-11-20T15:45:55;9.00;99.90
37984;DHT22;64625;50.882;4.376;2022-11-20T15:48:44;9.00;99.90
37984;DHT22;64625;50.882;4.376;2022-11-20T15:53:47;9.00;99.90
37984;DHT22;64625;50.882;4.376;2022-11-20T15:56:14;9.00;99.90
37984;DHT22;64625;50.882;4.376;2022-11-20T15:58:40;9.00;99.90
37984;DHT22;64625;50.882;4.376;2022-11-20T16:01:11;9.00;99.90
37984;DHT22;64625;50.882;4.376;2022-11-20T16:03:37;9.00;99.90
37984;DHT22;64625;50.882;4.376;2022-11-20T16:06:03;9.00;99.90
37984;DHT22;64625;50.882;4.376;2022-11-20T16:08:29;9.00;99.90
37984;DHT22;64625;50.882;4.376;2022-11-20T16:10:55;9.00;99.90
37984;DHT22;64625;50.882;4.376;2022-11-20T16:13:21;9.00;99.90
37984;DHT22;64625;50.882;4.376;2022-11-20T16:16:07;9.10;99.90
37984;DHT22;64625;50.882;4.376;2022-11-20T16:18:37;9.10;99.90
37984;DHT22;64625;50.882;4.376;2022-11-20T16:21:03;9.10;99.90
37984;DHT22;64625;50.882;4.376;2022-11-20T16:23:29;9.10;99.90
37984;DHT22;64625;50.882;4.376;2022-11-20T16:25:55;9.10;99.90
37984;DHT22;64625;50.882;4.376;2022-11-20T16:28:20;9.10;99.90
37984;DHT22;64625;50.882;4.376;2022-11-20T16:30:46;9.10;99.90
37984;DHT22;64625;50.882;4.376;2022-11-20T16:33:15;9.10;99.90
37984;DHT22;64625;50.882;4.376;2022-11-20T16:35:42;9.10;99.90
37984;DHT22;64625;50.882;4.376;2022-11-20T16:38:08;9.00;99.90
37984;DHT22;64625;50.882;4.376;2022-11-20T16:40:34;9.00;99.90
37984;DHT22;64625;50.882;4.376;2022-11-20T16:43:11;9.00;99.90
37984;DHT22;64625;50.882;4.376;2022-11-20T16:45:43;9.00;99.90
37984;DHT22;64625;50.882;4.376;2022-11-20T16:48:14;9.00;99.90
37984;DHT22;64625;50.882;4.376;2022-11-20T16:50:49;9.00;99.90
37984;DHT22;64625;50.882;4.376;2022-11-20T16:53:16;9.00;99.90
37984;DHT22;64625;50.882;4.376;2022-11-20T16:55:42;9.00;99.90
37984;DHT22;64625;50.882;4.376;2022-11-20T16:58:09;9.00;99.90
37984;DHT22;64625;50.882;4.376;2022-11-20T17:00:39;9.00;99.90
37984;DHT22;64625;50.882;4.376;2022-11-20T17:03:06;9.00;99.90
37984;DHT22;64625;50.882;4.376;2022-11-20T17:05:32;9.00;99.90
37984;DHT22;64625;50.882;4.376;2022-11-20T17:07:59;8.90;99.90
37984;DHT22;64625;50.882;4.376;2022-11-20T17:10:25;8.90;99.90
37984;DHT22;64625;50.882;4.376;2022-11-20T17:12:50;8.90;99.90
37984;DHT22;64625;50.882;4.376;2022-11-20T17:15:16;8.90;99.90
37984;DHT22;64625;50.882;4.376;2022-11-20T17:17:42;8.80;99.90
37984;DHT22;64625;50.882;4.376;2022-11-20T17:20:09;8.80;99.90
37984;DHT22;64625;50.882;4.376;2022-11-20T17:22:36;8.80;99.90
37984;DHT22;64625;50.882;4.376;2022-11-20T17:25:02;8.70;99.90
37984;DHT22;64625;50.882;4.376;2022-11-20T17:27:27;8.70;99.90
37984;DHT22;64625;50.882;4.376;2022-11-20T17:29:53;8.70;99.90
37984;DHT22;64625;50.882;4.376;2022-11-20T17:32:19;8.70;99.90
37984;DHT22;64625;50.882;4.376;2022-11-20T17:34:45;8.60;99.90
37984;DHT22;64625;50.882;4.376;2022-11-20T17:37:11;8.60;99.90
37984;DHT22;64625;50.882;4.376;2022-11-20T17:39:37;8.50;99.90
37984;DHT22;64625;50.882;4.376;2022-11-20T17:42:04;8.30;99.90
37984;DHT22;64625;50.882;4.376;2022-11-20T17:44:48;8.30;99.90
37984;DHT22;64625;50.882;4.376;2022-11-20T17:47:14;8.20;99.90
37984;DHT22;64625;50.882;4.376;2022-11-20T17:49:40;8.20;99.90
37984;DHT22;64625;50.882;4.376;2022-11-20T17:52:06;8.20;99.90
37984;DHT22;64625;50.882;4.376;2022-11-20T17:54:32;8.10;99.90
37984;DHT22;64625;50.882;4.376;2022-11-20T17:56:58;8.20;99.90
37984;DHT22;64625;50.882;4.376;2022-11-20T17:59:42;8.10;99.90
37984;DHT22;64625;50.882;4.376;2022-11-20T18:02:09;8.20;99.90
37984;DHT22;64625;50.882;4.376;2022-11-20T18:04:36;8.10;99.90
37984;DHT22;64625;50.882;4.376;2022-11-20T18:07:02;8.20;99.90